Relevés horaires Titlis (Suisse)


Relevés horaires à Titlis - Mercredi 07 Avr. 2021
Heure UTC1 Température [°C] Vent [km/h] Hum. [%] Pres.4 [hPa] Visi. [Km] Nébu. [octa] Préc.5 [mm] Cond.
2m. Res. Ros. Dir.2 Vit. Moy. Raf.3
23:00 -17.8 -31.5 -17.8 ONO 42.6 -- 51.9 100 700(0.7/3h) -- -- -- --
22:00 -17.9 -31.2 -18.5 NO 38.9 -- 55.6 95 700(0.9/3h) -- -- -- --
21:00 -18.5 -31.2 -18.5 NO 33.3 -- 50.0 100 700(1.1/3h) -- -- -- --
20:00 -18.0 -30.8 -18.1 NO 35.2 -- 50.0 99 700(1.0/3h) -- -- -- --
19:00 -18.4 -31 -18.5 ONO 33.3 -- 48.2 99 700(1.4/3h) -- -- -- --
18:00 -19.5 -31.2 -19.9 ONO 25.9 -- 61.1 97 700(1.4/3h) -- -- -- --
17:00 -19.8 -31.2 -19.8 O 24.1 -- 50.0 100 700(1.5/3h) -- -- -- --
16:00 -19.7 -33 -19.9 NO 35.2 -- 61.1 98 700(1.4/3h) -- -- -- --
15:00 -20.5 -34.4 -20.8 ONO 37.0 -- 50.0 97 700(1.5/3h) -- -- -- --
14:00 -20.4 -32.7 -20.4 ONO 27.8 -- 46.3 100 700(1.8/3h) -- -- -- --
13:00 -21.0 -33.5 -22.0 NO 27.8 -- 40.7 92 700(1.9/3h) -- -- -- --
12:00 -21.1 -33.2 -21.2 NO 25.9 -- 50.0 99 700(2.3/3h) -- -- -- --
11:00 -21.7 -31.7 -22.6 NNO 16.7 -- -- 92 686.5 -- -- -- --
10:00 -21.9 -32.5 -22.6 NNO 18.5 -- 42.6 94 700(2.7/3h) -- -- -- --
09:00 -22.3 -31.2 -22.3 NNO 13.0 -- 50.0 100 700(2.4/3h) -- -- -- --
08:00 -21.9 -33 -21.9 NNO 20.4 -- 48.2 100 700(2.3/3h) -- -- -- --
07:00 -22.2 -35 -22.2 NNO 27.8 -- 50.0 100 700(1.9/3h) -- -- -- --
06:00 -22.2 -33.4 -22.2 NNO 20.4 -- 57.4 100 700(2.0/3h) -- -- -- --
05:00 -22.0 -36.1 -22.0 ONO 35.2 -- 51.9 100 700(1.2/3h) -- -- -- --
04:00 -21.5 -30.9 -21.5 NNO 14.8 -- 55.6 100 700(0.4/3h) -- -- -- --
03:00 -20.7 -34.9 -20.7 NNO 38.9 -- 57.4 100 700(-0.4/3h) -- -- -- --
02:00 -21.2 -35 -21.2 ONO 35.2 -- 50.0 100 700(-0.6/3h) -- -- -- --
01:00 -21.5 -35.1 -21.6 ONO 33.3 -- 50.0 99 700(-0.5/3h) -- -- -- --
00:00 -21.2 -35.3 -21.2 NO 37.0 -- 55.6 100 700(-0.5/3h) -- -- -- --

1 Coordinated Universal Time. Actuellement il est 23:00 locale et 21:00 UTC.

2 Le vent souffle depuis la direction indiquée vers la direction oposée.

3 Les rafales max. sont disponible 40 min après l'heure du relevé.

4 Pour les stations d'altitude (plus de 600m) le géopotentiel du niveau le plus proche de la pression obligatoire est indiqué.

5 Les stations disposant d'un diffuseur peuvent indiquer "trace". Cela signifie que des précipitations ont touchés le sol mais que la quantité est inférieure à 0.1 mm.

Copyright

Les données affichées sur cette page sont la propriété exclusive de Météo Suisse.

Récapitulatif de la journée
Température [°C] Vent [km/h] Ensoleillement4 [h] Precipitations totale5 [mm] Pression [Hpa]
Min1 Max.2 Moy.3 Max. Min Max.
-22.6 -19.4 0 61.1 0 h 6 min 0 686.5 700.0

1 Température minimale relevée entre 18:00 UTC la veille et 18:00 UTC le jour donné.

2 Température maximale relevée entre 06:00 UTC le jour donné et 06:00 UTC le lendemain.

3 Vent moyen de la journée basé sur les relevés horaires.

4 Ensoleillement en heures relevé entre 06:00 UTC la veille et 06:00 UTC le jour donné.

5 Précipitations totales tombées entre 06:00 UTC la jour donné et 06:00 UTC le lendemain.

Graphiques horaires